1979 13P:KERRY (1979042S05170)


On this page: IBTrACS data - Map and Plots - Positions - Intensities - Original source data

Summary

Start Feb 11
End Mar 5
Basin SP
LMI 105 kt
Sources jtwc_sh
bom
wellington
td9636
neumann
ds824_au
ds824_sh
In WMO? Yes
Previous storm 1979 14S (SI)
Previous in basin 1979 11P (SP)
Concurrent storms 1979 10S (SI)
1979 12S (SI)
1979 14S (SI)
1979 13P (SP)
1979 16P (SP)
1979 15S (SI)
1979 17P (SP)
Next in basin 1979 16P (SP)
Next storm 1979 16P (SP)

top of page IBTrACS Data: File Access

top of page HURSAT Data: File Access

Image of storm

top of page Plots:

Map of storm track will not appear if FTP is down
Time series of cyclone Maximum Sustained Wind will not appear if FTP is down
Time series of cyclone Minimum Central Pressure will not appear if FTP is down

top of page Track Data:Position

jtwc_sh bom wellington td9636 neumann ds824_au ds824_sh
Date Lat Lon Lat Lon Lat Lon Lat Lon Lat Lon Lat Lon Lat Lon
1979-02-11 00:00:00 -4.8 170.1 -4.8 170.1 -4.8 170.1
1979-02-11 06:00:00 -5.2 170.1 -5.2 170.1 -5.2 170.1
1979-02-11 12:00:00 -5.5 170.0 -5.5 170.0 -5.5 170.0
1979-02-11 18:00:00 -5.8 169.9 -5.8 169.9 -5.8 169.9
1979-02-12 00:00:00 -6.1 169.8 -6.1 169.8 -6.1 169.8
1979-02-12 06:00:00 -6.5 169.7 -6.5 169.8 -6.5 169.7
1979-02-12 12:00:00 -6.9 169.7 -6.9 169.7 -6.9 169.7
1979-02-12 18:00:00 -7.2 169.6 -7.2 169.7 -7.2 169.6
1979-02-13 00:00:00 -7.5 169.5 -8.1 169.9 -7.5 169.5 -8.1 170.3 -8.1 169.9 -7.5 169.5
1979-02-13 06:00:00 -7.8 168.6 -8.1 168.9 -7.8 168.6 -8.1 169.3 -8.1 168.9 -7.8 168.6
1979-02-13 12:00:00 -8.0 167.5 -8.2 167.9 -8.0 167.5 -8.2 168.3 -8.2 167.9 -8.0 167.5
1979-02-13 18:00:00 -8.0 167.0 -8.3 166.9 -8.0 167.0 -8.3 167.2 -8.3 166.9 -8.0 167.0
1979-02-14 00:00:00 -8.1 166.5 -8.3 165.9 -7.8 166.0 -8.1 166.5 -8.3 166.4 -8.3 165.9 -8.1 166.5
1979-02-14 06:00:00 -8.5 165.6 -8.6 164.0 -8.4 164.4 -8.5 165.6 -8.5 164.4 -8.6 164.0 -8.5 165.6
1979-02-14 12:00:00 -9.0 164.5 -9.1 162.9 -9.0 163.0 -9.0 164.5 -9.0 163.3 -9.1 163.0 -9.0 164.5
1979-02-14 18:00:00 -9.5 162.9 -9.3 162.2 -9.5 161.9 -9.5 163.0 -9.3 162.5 -9.4 162.2 -9.5 162.9
1979-02-15 00:00:00 -10.1 161.5 -9.8 161.9 -10.0 161.0 -10.1 161.5 -9.6 162.2 -9.8 161.8 -10.1 161.5
1979-02-15 06:00:00 -10.8 160.6 -10.8 160.7 -10.5 160.2 -10.8 160.6 -10.7 161.1 -10.8 160.8 -10.8 160.6
1979-02-15 12:00:00 -11.5 159.9 -11.4 160.0 -11.0 159.5 -11.5 159.9 -11.3 160.3 -11.4 160.0 -11.5 159.9
1979-02-15 18:00:00 -11.9 159.3 -11.9 159.3 -11.8 158.4 -11.9 159.2 -11.8 159.6 -11.9 159.3 -11.9 159.3
1979-02-16 00:00:00 -12.2 158.6 -12.2 158.7 -12.5 157.5 -12.2 158.6 -12.1 159.0 -12.2 158.7 -12.2 158.6
1979-02-16 06:00:00 -12.5 158.0 -12.6 157.9 -13.1 157.3 -12.5 157.8 -12.6 158.2 -12.6 157.9 -12.5 158.0
1979-02-16 12:00:00 -12.8 157.3 -12.9 157.3 -13.5 157.4 -12.8 157.3 -12.8 157.6 -12.9 157.4 -12.8 157.3
1979-02-16 18:00:00 -13.3 157.2 -13.4 157.3 -13.9 157.4 -13.3 157.3 -13.3 157.5 -13.4 157.4 -13.3 157.2
1979-02-17 00:00:00 -13.9 157.6 -13.9 157.7 -14.2 157.4 -13.9 157.6 -13.8 157.8 -13.9 157.7 -13.9 157.6
jtwc_sh bom wellington td9636 neumann ds824_au ds824_sh
1979-02-17 06:00:00 -14.3 158.0 -14.3 158.1 -14.6 157.4 -14.3 157.9 -14.3 158.2 -14.3 158.1 -14.3 158.0
1979-02-17 12:00:00 -14.6 158.3 -14.6 158.4 -15.0 157.5 -14.6 158.3 -14.5 158.5 -14.6 158.4 -14.6 158.3
1979-02-17 18:00:00 -14.9 158.6 -14.9 158.6 -15.2 157.6 -14.9 158.6 -14.9 158.8 -15.0 158.6 -14.9 158.6
1979-02-18 00:00:00 -15.2 158.8 -15.3 158.8 -15.5 157.7 -15.2 158.8 -15.2 159.0 -15.3 158.8 -15.2 158.8
1979-02-18 06:00:00 -15.7 158.8 -16.0 158.7 -16.0 157.7 -15.7 158.7 -15.9 158.9 -16.0 158.6 -15.7 158.8
1979-02-18 12:00:00 -16.3 158.4 -16.4 158.3 -16.5 157.5 -16.3 158.4 -16.3 158.6 -16.4 158.3 -16.3 158.4
1979-02-18 18:00:00 -16.7 157.9 -17.0 157.8 -16.8 157.3 -16.8 158.0 -16.9 158.1 -17.0 157.8 -16.7 157.9
1979-02-19 00:00:00 -17.2 157.4 -17.3 157.3 -17.0 157.0 -17.2 157.4 -17.2 157.6 -17.3 157.3 -17.2 157.4
1979-02-19 06:00:00 -17.7 156.8 -17.8 156.8 -17.5 156.6 -17.7 156.8 -17.7 157.1 -17.8 156.8 -17.7 156.8
1979-02-19 12:00:00 -18.2 156.3 -18.2 156.4 -18.0 156.1 -18.2 156.3 -18.1 156.7 -18.2 156.4 -18.2 156.3
1979-02-19 18:00:00 -18.6 155.9 -18.7 155.8 -18.6 155.5 -18.6 155.9 -18.6 156.1 -18.7 155.8 -18.6 155.9
1979-02-20 00:00:00 -18.9 155.5 -18.9 155.4 -19.0 155.0 -18.9 155.5 -18.9 155.7 -18.9 155.4 -18.9 155.5
1979-02-20 06:00:00 -18.9 155.2 -18.9 155.1 -19.0 154.6 -18.9 155.1 -18.9 155.3 -18.9 155.1 -18.9 155.2
1979-02-20 12:00:00 -18.7 154.8 -18.6 154.8 -18.8 154.3 -18.7 154.8 -18.7 155.1 -18.6 154.8 -18.7 154.8
1979-02-20 18:00:00 -18.4 154.4 -18.3 154.2 -18.4 154.1 -18.4 154.4 -18.3 154.5 -18.3 154.3 -18.4 154.4
1979-02-21 00:00:00 -18.1 154.1 -18.0 154.1 -18.0 154.0 -18.1 154.1 -18.1 154.3 -18.0 154.1 -18.1 154.1
1979-02-21 06:00:00 -17.7 154.1 -17.6 153.9 -17.7 154.1 -17.7 154.1 -17.6 154.1 -17.6 153.9 -17.7 154.1
1979-02-21 12:00:00 -17.3 154.2 -17.4 154.1 -17.5 154.3 -17.3 154.2 -17.4 154.3 -17.3 154.1 -17.3 154.2
1979-02-21 18:00:00 -17.0 154.2 -17.1 154.3 -17.2 154.3 -17.0 154.2 -17.1 154.5 -17.1 154.3 -17.0 154.2
1979-02-22 00:00:00 -16.8 154.3 -16.8 154.1 -17.0 154.4 -16.8 154.3 -16.9 154.3 -16.8 154.2 -16.8 154.3
1979-02-22 06:00:00 -16.6 154.7 -16.6 154.7 -16.7 154.6 -16.6 154.6 -16.6 154.8 -16.6 154.7 -16.6 154.7
1979-02-22 12:00:00 -16.6 155.1 -16.7 155.1 -16.5 154.8 -16.6 155.1 -16.7 155.2 -16.7 155.1 -16.6 155.1
1979-02-22 18:00:00 -16.7 155.5 -16.8 155.7 -16.4 155.2 -16.7 155.5 -16.8 155.8 -16.8 155.7 -16.7 155.5
1979-02-23 00:00:00 -16.9 155.9 -16.9 155.9 -16.5 155.5 -16.9 155.9 -16.9 156.1 -17.0 155.9 -16.9 155.9
jtwc_sh bom wellington td9636 neumann ds824_au ds824_sh
1979-02-23 06:00:00 -17.1 156.2 -17.2 156.1 -16.7 155.7 -17.1 156.2 -17.2 156.3 -17.2 156.2 -17.1 156.2
1979-02-23 12:00:00 -17.3 156.5 -17.3 156.4 -17.0 155.8 -17.3 156.5 -17.3 156.6 -17.3 156.4 -17.3 156.5
1979-02-23 18:00:00 -17.4 156.8 -17.4 156.6 -17.3 155.8 -17.4 156.8 -17.4 156.8 -17.4 156.7 -17.4 156.8
1979-02-24 00:00:00 -17.5 157.0 -17.5 156.9 -17.5 155.8 -17.5 157.0 -17.5 157.1 -17.5 156.9 -17.5 157.0
1979-02-24 06:00:00 -17.6 157.2 -17.7 157.1 -17.6 155.8 -17.6 157.2 -17.7 157.3 -17.7 157.1 -17.6 157.2
1979-02-24 12:00:00 -17.7 157.1 -17.8 157.0 -17.6 155.7 -17.7 157.1 -17.8 157.3 -17.8 157.0 -17.7 157.1
1979-02-24 18:00:00 -17.6 156.6 -17.8 156.4 -17.7 155.6 -17.6 156.7 -17.8 156.7 -17.8 156.4 -17.6 156.6
1979-02-25 00:00:00 -17.5 156.1 -17.7 156.0 -17.7 155.5 -17.5 156.1 -17.7 156.3 -17.7 156.0 -17.5 156.1
1979-02-25 06:00:00 -17.4 155.5 -17.5 155.4 -17.7 155.3 -17.4 155.5 -17.5 155.7 -17.5 155.4 -17.4 155.5
1979-02-25 12:00:00 -17.4 155.0 -17.5 155.0 -17.7 155.0 -17.4 155.0 -17.5 155.3 -17.5 155.0 -17.4 155.0
1979-02-25 18:00:00 -17.4 154.5 -17.5 154.3 -17.6 154.5 -17.3 154.6 -17.5 154.6 -17.5 154.3 -17.4 154.5
1979-02-26 00:00:00 -17.5 154.1 -17.6 154.0 -17.6 154.0 -17.5 154.1 -17.5 154.3 -17.6 154.0 -17.5 154.1
1979-02-26 06:00:00 -18.1 153.5 -18.3 153.2 -18.0 153.5 -18.1 153.5 -18.2 153.5 -18.3 153.2 -18.1 153.5
1979-02-26 12:00:00 -18.8 153.0 -18.8 152.9 -18.5 153.0 -18.8 153.0 -18.7 153.2 -18.8 152.9 -18.8 153.0
1979-02-26 18:00:00 -19.3 152.9 -19.4 152.6 -18.9 152.7 -19.4 152.9 -19.3 152.8 -19.4 152.6 -19.3 152.9
1979-02-27 00:00:00 -19.8 153.0 -19.7 152.8 -19.3 152.5 -19.8 153.0 -19.6 153.0 -19.7 152.8 -19.8 153.0
1979-02-27 06:00:00 -20.1 152.9 -20.2 153.0 -19.7 152.3 -20.1 152.9 -20.1 153.2 -20.1 153.0 -20.1 152.9
1979-02-27 12:00:00 -20.3 152.7 -20.3 152.7 -20.1 152.0 -20.3 152.7 -20.3 153.0 -20.3 152.7 -20.3 152.7
1979-02-27 18:00:00 -20.3 152.5 -20.3 152.4 -20.3 151.5 -20.3 152.5 -20.3 152.6 -20.3 152.4 -20.3 152.5
1979-02-28 00:00:00 -20.3 152.1 -20.3 152.1 -20.5 151.0 -20.3 152.1 -20.3 152.4 -20.3 152.0 -20.3 152.1
1979-02-28 06:00:00 -20.4 151.3 -20.2 151.2 -20.6 150.5 -20.4 151.4 -20.2 151.5 -20.2 151.2 -20.4 151.3
1979-02-28 12:00:00 -20.4 150.5 -20.3 150.4 -20.7 150.0 -20.4 150.5 -20.3 150.8 -20.3 150.4 -20.4 150.5
1979-02-28 18:00:00 -20.4 149.6 -20.2 149.4 -20.6 149.5 -20.4 149.6 -20.2 149.7 -20.2 149.4 -20.4 149.6
1979-03-01 00:00:00 -20.3 148.8 -20.3 148.8 -20.5 149.0 -20.3 148.8 -20.3 149.1 -20.2 148.7 -20.3 148.8
jtwc_sh bom wellington td9636 neumann ds824_au ds824_sh
1979-03-01 06:00:00 -20.2 148.3 -20.1 148.3 -20.3 148.5 -20.2 148.4 -20.1 148.6 -20.1 148.3 -20.2 148.3
1979-03-01 12:00:00 -20.0 148.1 -20.0 148.1 -20.1 148.0 -20.0 148.1 -20.0 148.3 -20.0 148.1 -20.0 148.1
1979-03-01 18:00:00 -19.9 147.9 -19.8 148.0 -20.0 147.4 -20.0 147.9 -19.8 148.2 -19.8 148.0 -19.9 147.9
1979-03-02 00:00:00 -19.8 147.7 -19.7 147.8 -19.7 147.0 -19.8 147.7 -19.7 148.0 -19.6 147.8 -19.8 147.7
1979-03-02 06:00:00 -19.4 147.6 -19.2 147.6 -19.1 146.9 -19.4 147.6 -19.3 147.8 -19.2 147.6 -19.4 147.6
1979-03-02 12:00:00 -18.8 147.5 -18.7 147.4 -18.5 147.0 -18.8 147.5 -18.8 147.6 -18.6 147.4 -18.8 147.5
1979-03-02 18:00:00 -18.0 147.4 -17.8 147.4 -18.0 147.1 -17.9 147.4 -17.9 147.6 -17.8 147.4 -18.0 147.4
1979-03-03 00:00:00 -17.2 147.4 -17.1 147.4 -17.5 147.2 -17.2 147.4 -17.2 147.6 -17.2 147.4 -17.2 147.4
1979-03-03 06:00:00 -16.8 147.5 -17.0 147.5 -16.9 147.3 -16.9 147.5 -17.0 147.7 -17.0 147.5 -16.8 147.5
1979-03-03 12:00:00 -17.0 147.6 -17.0 147.5 -16.5 147.6 -17.0 147.6 -16.9 147.7 -17.0 147.5 -17.0 147.6
1979-03-03 18:00:00 -17.5 147.7 -17.6 147.7 -16.6 148.1 -17.4 147.7 -17.5 147.9 -17.6 147.7 -17.5 147.7
1979-03-04 00:00:00 -18.1 147.9 -18.2 148.0 -17.2 148.6 -18.1 147.9 -18.1 148.1 -18.2 148.0 -18.1 147.9
1979-03-04 06:00:00 -18.7 148.5 -19.0 148.5 -18.1 149.0 -18.7 148.5 -18.9 148.6 -19.0 148.5 -18.7 148.5
1979-03-04 12:00:00 -19.4 149.2 -19.4 149.2 -19.2 149.4 -19.4 149.2 -19.3 149.3 -19.5 149.3 -19.4 149.2
1979-03-04 18:00:00 -20.5 149.9 -20.5 150.1 -20.4 149.7 -20.5 149.9 -20.3 150.2 -20.5 150.1 -20.5 149.9
1979-03-05 00:00:00 -21.6 150.6 -21.7 150.8 -21.5 150.0 -21.6 150.6 -21.5 150.9 -21.6 150.6
1979-03-05 06:00:00 -22.4 151.3 -22.4 151.3 -22.4 151.3
1979-03-05 12:00:00 -23.0 152.0 -23.0 152.0 -23.0 152.0

top of pageTrack Data:Intensity

jtwc_sh bom wellington td9636 neumann ds824_au ds824_sh
Date Wind Pres Wind Pres Wind Pres Wind Pres Wind Pres Wind Pres Wind Pres
1979-02-11 00:00:00 30. 30.
1979-02-11 06:00:00 40. 40.
1979-02-11 12:00:00 45. 45.
1979-02-11 18:00:00 50. 50.
1979-02-12 00:00:00 55. 55.
1979-02-12 06:00:00 60. 60.
1979-02-12 12:00:00 60. 60.
1979-02-12 18:00:00 60. 60.
1979-02-13 00:00:00 65. 1003. 30. 25. 1003. 25. 1003. 65.
1979-02-13 06:00:00 70. 1000. 30. 30. 1000. 30. 1000. 70.
1979-02-13 12:00:00 70. 997. 35. 997. 35. 997. 70.
1979-02-13 18:00:00 70. 993. 40. 993. 40. 993. 70.
1979-02-14 00:00:00 65. 988. 40. 990. 55. 50. 988. 50. 988. 65.
1979-02-14 06:00:00 65. 986. 40. 990. 55. 55. 986. 50. 986. 65.
1979-02-14 12:00:00 70. 983. 55. 980. 55. 983. 55. 983. 70.
1979-02-14 18:00:00 70. 980. 55. 980. 60. 980. 60. 980. 70.
1979-02-15 00:00:00 75. 978. 55. 980. 65. 65. 978. 60. 978. 75.
1979-02-15 06:00:00 80. 978. 55. 980. 65. 65. 978. 60. 978. 80.
1979-02-15 12:00:00 85. 978. 55. 980. 72. 65. 978. 60. 978. 85.
1979-02-15 18:00:00 85. 978. 55. 980. 72. 65. 978. 60. 978. 85.
1979-02-16 00:00:00 90. 977. 55. 980. 65. 65. 977. 65. 977. 90.
1979-02-16 06:00:00 90. 976. 55. 980. 65. 65. 976. 65. 976. 90.
1979-02-16 12:00:00 95. 975. 55. 980. 70. 70. 975. 65. 975. 95.
1979-02-16 18:00:00 100. 973. 55. 980. 70. 70. 973. 70. 973. 100.
1979-02-17 00:00:00 105. 971. 65. 970. 75. 75. 971. 70. 971. 105.
jtwc_sh bom wellington td9636 neumann ds824_au ds824_sh
1979-02-17 06:00:00 105. 969. 65. 970. 75. 75. 969. 75. 969. 105.
1979-02-17 12:00:00 105. 966. 85. 945. 85. 80. 966. 75. 966. 105.
1979-02-17 18:00:00 105. 963. 85. 945. 85. 85. 963. 80. 963. 105.
1979-02-18 00:00:00 105. 960. 80. 955. 90. 85. 960. 85. 960. 105.
1979-02-18 06:00:00 100. 956. 80. 955. 90. 90. 956. 85. 956. 100.
1979-02-18 12:00:00 100. 952. 80. 955. 95. 95. 952. 90. 952. 100.
1979-02-18 18:00:00 100. 950. 80. 955. 95. 100. 950. 95. 950. 100.
1979-02-19 00:00:00 95. 945. 75. 960. 105. 105. 945. 100. 945. 95.
1979-02-19 06:00:00 95. 945. 75. 960. 105. 105. 945. 100. 945. 95.
1979-02-19 12:00:00 95. 945. 75. 960. 105. 945. 100. 945. 95.
1979-02-19 18:00:00 95. 945. 75. 960. 105. 945. 100. 945. 95.
1979-02-20 00:00:00 95. 945. 70. 965. 105. 945. 100. 945. 95.
1979-02-20 06:00:00 90. 947. 70. 965. 100. 947. 95. 947. 90.
1979-02-20 12:00:00 90. 950. 70. 965. 100. 100. 950. 95. 950. 90.
1979-02-20 18:00:00 90. 952. 70. 965. 100. 95. 952. 90. 952. 90.
1979-02-21 00:00:00 90. 955. 65. 970. 97. 95. 955. 90. 955. 90.
1979-02-21 06:00:00 85. 955. 65. 970. 97. 95. 955. 90. 955. 85.
1979-02-21 12:00:00 85. 956. 85. 945. 95. 90. 956. 85. 956. 85.
1979-02-21 18:00:00 80. 957. 85. 945. 95. 90. 957. 85. 957. 80.
1979-02-22 00:00:00 75. 957. 65. 970. 90. 957. 85. 957. 75.
1979-02-22 06:00:00 70. 957. 65. 970. 90. 957. 85. 957. 70.
1979-02-22 12:00:00 70. 958. 70. 965. 90. 90. 958. 85. 958. 70.
1979-02-22 18:00:00 65. 960. 70. 965. 90. 85. 960. 85. 960. 65.
1979-02-23 00:00:00 65. 962. 70. 965. 85. 962. 80. 962. 65.
jtwc_sh bom wellington td9636 neumann ds824_au ds824_sh
1979-02-23 06:00:00 65. 963. 70. 965. 85. 963. 80. 963. 65.
1979-02-23 12:00:00 65. 965. 75. 960. 85. 80. 965. 80. 965. 65.
1979-02-23 18:00:00 60. 967. 75. 960. 85. 80. 967. 75. 967. 60.
1979-02-24 00:00:00 60. 970. 75. 960. 75. 75. 970. 70. 970. 60.
1979-02-24 06:00:00 60. 970. 75. 960. 75. 75. 970. 70. 970. 60.
1979-02-24 12:00:00 55. 972. 80. 955. 70. 972. 70. 972. 55.
1979-02-24 18:00:00 55. 974. 80. 955. 70. 974. 65. 974. 55.
1979-02-25 00:00:00 50. 976. 80. 955. 65. 65. 976. 65. 976. 50.
1979-02-25 06:00:00 50. 979. 80. 955. 65. 65. 979. 60. 979. 50.
1979-02-25 12:00:00 45. 980. 65. 970. 60. 980. 60. 980. 45.
1979-02-25 18:00:00 40. 982. 65. 970. 60. 982. 55. 982. 40.
1979-02-26 00:00:00 40. 984. 55. 980. 60. 55. 984. 55. 984. 40.
1979-02-26 06:00:00 40. 984. 55. 980. 60. 55. 984. 55. 984. 40.
1979-02-26 12:00:00 40. 984. 55. 980. 55. 55. 984. 55. 984. 40.
1979-02-26 18:00:00 40. 985. 55. 980. 55. 55. 985. 55. 985. 40.
1979-02-27 00:00:00 40. 987. 40. 990. 50. 50. 987. 50. 987. 40.
1979-02-27 06:00:00 40. 988. 40. 990. 50. 50. 988. 50. 988. 40.
1979-02-27 12:00:00 35. 990. 40. 990. 45. 45. 990. 45. 990. 35.
1979-02-27 18:00:00 35. 991. 40. 990. 45. 45. 991. 45. 991. 35.
1979-02-28 00:00:00 35. 994. 30. 997. 40. 40. 994. 40. 994. 35.
1979-02-28 06:00:00 35. 994. 30. 997. 40. 40. 994. 40. 994. 35.
1979-02-28 12:00:00 35. 994. 40. 990. 40. 40. 994. 40. 994. 35.
1979-02-28 18:00:00 35. 995. 40. 990. 40. 40. 995. 40. 995. 35.
1979-03-01 00:00:00 35. 995. 40. 990. 40. 40. 995. 40. 995. 35.
jtwc_sh bom wellington td9636 neumann ds824_au ds824_sh
1979-03-01 06:00:00 45. 996. 40. 990. 40. 35. 996. 35. 996. 45.
1979-03-01 12:00:00 50. 998. 30. 997. 35. 35. 998. 35. 998. 50.
1979-03-01 18:00:00 45. 1000. 30. 997. 35. 30. 1000. 30. 1000. 45.
1979-03-02 00:00:00 40. 1002. 30. 997. 25. 1002. 25. 1002. 40.
1979-03-02 06:00:00 35. 1001. 30. 997. 25. 1001. 30. 1001. 35.
1979-03-02 12:00:00 35. 999. 40. 990. 35. 30. 999. 30. 999. 35.
1979-03-02 18:00:00 35. 997. 40. 990. 35. 35. 997. 35. 997. 35.
1979-03-03 00:00:00 35. 995. 40. 990. 35. 40. 995. 40. 995. 35.
1979-03-03 06:00:00 35. 994. 40. 990. 35. 40. 994. 40. 994. 35.
1979-03-03 12:00:00 35. 994. 30. 997. 50. 40. 994. 40. 994. 35.
1979-03-03 18:00:00 994. 30. 997. 50. 40. 994. 40. 994.
1979-03-04 00:00:00 993. 30. 997. 40. 40. 993. 40. 993.
1979-03-04 06:00:00 994. 30. 997. 40. 40. 994. 40. 994.
1979-03-04 12:00:00 994. 30. 997. 35. 40. 994. 40. 994.
1979-03-04 18:00:00 997. 30. 997. 35. 35. 997. 35. 997.
1979-03-05 00:00:00 999. 30. 997. 35. 30. 999.
1979-03-05 06:00:00 35.
1979-03-05 12:00:00

top of page Links to source data

Source Source file Format
jtwc_sh bsh131979.txt ATCF
bom Newcyclonedatabase-08repair.csv:Line=10838:KERRY CSV file (from Excel file)
wellington TC_BT_1967_2006.csv:Line=1269:KERRY Text table
td9636 cons_worldwide_trop_cyclone_18710101-19891231-006:Line=10790 TD 9636
neumann tracks.sh:Storm=549:KERRY:BSH1379:BM496 HURDAT
ds824_au aus_area.dat:582:KERRY HURDAT
ds824_sh s_hem.dat:1391:13P HURDAT